Time;durP1;ratioP1;P1;durP2;ratioP2;P2;SDS_P1;SDS_P2;PMS_P1;PMS_P2;Temp;Humidity;BMP_temperature;BMP_pressure;BME280_temperature;BME280_humidity;BME280_pressure;Samples;Min_cycle;Max_cycle;Signal;HPM_P1;HPM_P2
2021/08/27 00:01:56;;;;;;;13.50;3.30;;;11.70;99.90;;;10.36;100.00;100671.22;4975734;28;20055;-79
2021/08/27 00:04:22;;;;;;;12.75;3.72;;;11.70;99.90;;;10.38;100.00;100669.38;4953978;28;20119;-79
2021/08/27 00:06:48;;;;;;;6.78;3.63;;;11.80;99.90;;;10.41;100.00;100682.38;5008767;28;20059;-79
2021/08/27 00:09:14;;;;;;;6.70;3.60;;;11.80;99.90;;;10.44;100.00;100685.75;4998181;28;20173;-80
2021/08/27 00:11:43;;;;;;;7.28;3.90;;;11.80;99.90;;;10.45;100.00;100678.69;4990609;28;20080;-78
2021/08/27 00:14:09;;;;;;;12.65;3.88;;;11.90;99.90;;;10.50;100.00;100694.31;4988817;28;20139;-79
2021/08/27 00:16:35;;;;;;;8.45;3.58;;;11.90;99.90;;;10.50;100.00;100683.78;4994432;28;20086;-79
2021/08/27 00:19:01;;;;;;;8.98;4.03;;;11.90;99.90;;;10.50;100.00;100686.41;5011581;28;20087;-79
2021/08/27 00:21:29;;;;;;;12.45;3.67;;;11.90;99.90;;;10.53;100.00;100687.09;5009287;28;20026;-79
2021/08/27 00:23:55;;;;;;;9.45;3.88;;;11.90;99.90;;;10.54;100.00;100693.19;5003332;28;20480;-79
2021/08/27 00:26:21;;;;;;;5.63;3.17;;;11.90;99.90;;;10.55;100.00;100682.59;5009563;28;20129;-79
2021/08/27 00:28:47;;;;;;;9.70;3.42;;;12.00;99.90;;;10.60;100.00;100695.56;5022171;28;20082;-79
2021/08/27 00:31:13;;;;;;;6.53;3.20;;;12.00;99.90;;;10.59;100.00;100692.06;5023943;28;20037;-79
2021/08/27 00:33:39;;;;;;;9.07;3.30;;;12.00;99.90;;;10.61;100.00;100692.00;5019530;28;20041;-79
2021/08/27 00:36:05;;;;;;;5.80;3.15;;;12.00;99.90;;;10.62;100.00;100698.97;4994915;28;20070;-79
2021/08/27 00:38:31;;;;;;;6.18;3.40;;;12.00;99.90;;;10.65;100.00;100698.84;4995570;28;20484;-79
2021/08/27 00:40:57;;;;;;;7.60;3.65;;;12.10;99.90;;;10.66;100.00;100687.38;5014893;28;20480;-79
2021/08/27 00:43:23;;;;;;;8.45;3.28;;;12.10;99.90;;;10.66;100.00;100693.47;5007851;28;20303;-79
2021/08/27 00:45:50;;;;;;;7.35;3.03;;;12.10;99.90;;;10.68;100.00;100691.63;5022656;28;20026;-79
2021/08/27 00:48:16;;;;;;;14.25;3.40;;;12.10;99.90;;;10.68;100.00;100690.78;4994958;28;20148;-79
2021/08/27 00:50:45;;;;;;;10.07;2.88;;;12.10;99.90;;;10.70;100.00;100694.19;4977863;28;20083;-79
2021/08/27 00:53:11;;;;;;;4.43;2.88;;;12.10;99.90;;;10.67;100.00;100689.09;5004637;28;20028;-79
2021/08/27 00:55:38;;;;;;;6.43;3.22;;;12.10;99.90;;;10.63;100.00;100682.25;5023200;28;20457;-79
2021/08/27 00:58:06;;;;;;;7.20;2.90;;;12.10;99.90;;;10.61;100.00;100677.06;4989335;28;20021;-79
2021/08/27 01:00:34;;;;;;;6.32;2.70;;;12.00;99.90;;;10.58;100.00;100676.34;4995735;28;20530;-79
2021/08/27 01:03:02;;;;;;;6.90;2.88;;;12.00;99.90;;;10.57;100.00;100677.28;5022283;28;20055;-79
2021/08/27 01:05:35;;;;;;;12.73;3.00;;;12.00;99.90;;;10.57;100.00;100677.28;5014534;28;20045;-79
2021/08/27 01:08:33;;;;;;;5.53;2.35;;;12.00;99.90;;;10.57;100.00;100693.06;4972244;28;20064;-79
2021/08/27 01:11:28;;;;;;;4.32;2.05;;;12.00;99.90;;;10.58;100.00;100689.50;4989047;28;20513;-79
2021/08/27 01:14:06;;;;;;;8.00;2.10;;;12.00;99.90;;;10.60;100.00;100687.66;5010400;28;20087;-79
2021/08/27 01:16:45;;;;;;;7.50;2.13;;;12.00;99.90;;;10.62;100.00;100688.44;4990244;28;20032;-80
2021/08/27 01:20:07;;;;;;;3.63;2.30;;;12.00;99.90;;;10.63;100.00;100687.53;5013527;28;20071;-80
2021/08/27 01:23:32;;;;;;;6.10;2.30;;;12.00;99.90;;;10.66;100.00;100692.63;5026129;28;20074;-79
2021/08/27 01:26:02;;;;;;;7.88;2.38;;;12.10;99.90;;;10.70;100.00;100688.94;4980671;28;20079;-79
2021/08/27 01:28:31;;;;;;;7.90;2.75;;;12.10;99.90;;;10.68;100.00;100690.78;4944601;28;20143;-80
2021/08/27 01:31:17;;;;;;;5.30;2.70;;;12.10;99.90;;;10.67;100.00;100702.25;4994746;28;20123;-80
2021/08/27 01:34:14;;;;;;;10.80;2.92;;;12.10;99.90;;;10.66;100.00;100692.63;5000279;28;20038;-79
2021/08/27 01:36:42;;;;;;;5.53;2.75;;;12.00;99.90;;;10.63;100.00;100687.53;5002975;28;20418;-80
2021/08/27 01:39:13;;;;;;;7.63;3.40;;;12.10;99.90;;;10.66;100.00;100692.63;5002739;28;20385;-79
2021/08/27 01:41:44;;;;;;;7.72;3.50;;;12.10;99.90;;;10.72;100.00;100696.75;5008801;28;21049;-79
2021/08/27 01:44:13;;;;;;;7.07;3.53;;;12.10;99.90;;;10.72;100.00;100694.13;5033078;28;20357;-80
2021/08/27 01:46:42;;;;;;;5.70;3.40;;;12.10;99.90;;;10.75;100.00;100702.72;5038230;28;20055;-80
2021/08/27 01:49:11;;;;;;;8.05;3.30;;;12.20;99.90;;;10.77;100.00;100708.78;5019083;28;20438;-79
2021/08/27 01:51:42;;;;;;;13.70;3.30;;;12.20;99.90;;;10.79;100.00;100711.34;5011607;28;20071;-80
2021/08/27 01:54:09;;;;;;;6.05;3.20;;;12.20;99.90;;;10.80;100.00;100705.16;4976987;28;20108;-80
2021/08/27 01:56:38;;;;;;;9.23;3.55;;;12.20;99.90;;;10.82;100.00;100712.06;5007033;28;20039;-80
2021/08/27 01:59:06;;;;;;;6.25;3.38;;;12.20;99.90;;;10.82;100.00;100721.72;5034334;28;20060;-80
2021/08/27 02:01:35;;;;;;;5.03;3.22;;;12.20;99.90;;;10.83;100.00;100710.28;5042548;28;20038;-80
2021/08/27 02:04:10;;;;;;;7.18;3.45;;;12.20;99.90;;;10.82;100.00;100743.66;5035227;28;20080;-80
2021/08/27 02:06:38;;;;;;;4.57;3.25;;;12.20;99.90;;;10.81;100.00;100733.19;4978587;28;20034;-81
2021/08/27 02:09:05;;;;;;;8.07;2.97;;;12.20;99.90;;;10.81;100.00;100736.66;4986077;28;20026;-80
2021/08/27 02:11:32;;;;;;;3.40;2.58;;;12.20;99.90;;;10.82;100.00;100729.63;4993360;28;20048;-80
2021/08/27 02:14:08;;;;;;;8.43;3.50;;;12.20;99.90;;;10.82;100.00;100737.50;4976826;28;20037;-80
2021/08/27 02:16:36;;;;;;;8.05;3.20;;;12.20;99.90;;;10.82;100.00;100725.22;4967603;28;20094;-80
2021/08/27 02:19:04;;;;;;;10.60;3.30;;;;;;;10.85;100.00;100740.03;4963568;28;20048;-80
2021/08/27 02:21:41;;;;;;;6.10;3.20;;;;;;;10.84;100.00;100733.91;4951607;28;20026;-80
2021/08/27 02:24:18;;;;;;;5.30;3.38;;;12.30;99.90;;;10.85;100.00;100754.03;4993232;28;20430;-80
2021/08/27 02:26:47;;;;;;;10.05;3.22;;;12.20;99.90;;;10.84;100.00;100748.84;5034418;28;20067;-80
2021/08/27 02:29:19;;;;;;;13.13;3.38;;;12.30;99.90;;;10.84;100.00;100744.44;5006660;28;20040;-80
2021/08/27 02:31:53;;;;;;;6.80;2.90;;;12.30;99.90;;;10.86;100.00;100737.31;5000406;28;20044;-80
2021/08/27 02:34:20;;;;;;;11.00;3.38;;;12.30;99.90;;;10.82;100.00;100735.75;5041326;28;20040;-81
2021/08/27 02:36:52;;;;;;;11.82;3.42;;;12.20;99.90;;;10.79;100.00;100735.88;4988217;28;20029;-80
2021/08/27 02:39:23;;;;;;;12.32;3.17;;;12.30;99.90;;;10.82;100.00;100737.50;5011797;28;20486;-80
2021/08/27 02:41:51;;;;;;;6.60;3.08;;;12.20;99.90;;;10.79;100.00;100735.88;4965263;28;20037;-80
2021/08/27 02:44:17;;;;;;;9.88;3.10;;;12.20;99.90;;;10.74;100.00;100723.88;4966509;28;20029;-80
2021/08/27 02:46:44;;;;;;;7.45;3.10;;;12.10;99.90;;;10.68;100.00;100722.38;4984126;28;20052;-80
2021/08/27 02:49:10;;;;;;;5.57;3.05;;;12.10;99.90;;;10.68;100.00;100735.53;5018824;28;20061;-80
2021/08/27 02:52:15;;;;;;;4.00;2.40;;;12.10;99.90;;;10.68;100.00;100733.75;5015290;28;20044;-80
2021/08/27 02:54:56;;;;;;;13.57;2.97;;;12.10;99.90;;;10.72;100.00;100731.00;5040305;28;20535;-80
2021/08/27 02:57:24;;;;;;;5.25;2.38;;;12.10;99.90;;;10.71;100.00;100732.75;5056969;28;20116;-80
2021/08/27 02:59:54;;;;;;;7.63;2.65;;;12.10;99.90;;;10.68;100.00;100727.66;4974730;28;25975;-80
2021/08/27 03:02:23;;;;;;;8.88;2.63;;;12.10;99.90;;;10.66;100.00;100724.22;5029936;28;20120;-81
2021/08/27 03:05:05;;;;;;;5.03;2.58;;;12.10;99.90;;;10.65;100.00;100735.69;4998384;28;20059;-81
2021/08/27 03:07:38;;;;;;;6.93;2.50;;;12.10;99.90;;;10.65;100.00;100733.06;4979506;28;20401;-79
2021/08/27 03:10:11;;;;;;;9.13;2.65;;;12.10;99.90;;;10.68;100.00;100743.44;4999564;28;20140;-79
2021/08/27 03:12:55;;;;;;;4.90;2.53;;;12.10;99.90;;;10.68;100.00;100744.28;5005411;28;20064;-80
2021/08/27 03:15:28;;;;;;;2.70;2.20;;;12.10;99.90;;;10.67;100.00;100736.50;5005522;28;20116;-82
2021/08/27 03:18:16;;;;;;;8.05;2.30;;;12.10;99.90;;;10.67;100.00;100734.69;5022545;28;20132;-79
2021/08/27 03:20:54;;;;;;;5.88;2.35;;;12.10;99.90;;;10.66;100.00;100737.41;4989446;28;20067;-80
2021/08/27 03:23:22;;;;;;;7.35;2.58;;;12.10;99.90;;;10.64;100.00;100737.47;5003024;28;20041;-81
2021/08/27 03:25:49;;;;;;;9.57;2.58;;;12.10;99.90;;;10.67;100.00;100747.03;4995217;28;20092;-81
2021/08/27 03:28:22;;;;;;;7.07;2.67;;;12.10;99.90;;;10.69;100.00;100753.06;5032569;28;20067;-81
2021/08/27 03:30:55;;;;;;;5.70;2.55;;;12.20;99.90;;;10.66;100.00;100751.41;4987422;28;20063;-79
2021/08/27 03:33:26;;;;;;;6.43;2.42;;;12.10;99.90;;;10.63;100.00;100745.44;5034853;28;20067;-79
2021/08/27 03:35:55;;;;;;;7.65;2.28;;;12.10;99.90;;;10.65;100.00;100759.41;5005314;28;20105;-78
2021/08/27 03:38:24;;;;;;;6.45;2.95;;;12.10;99.90;;;10.65;100.00;100752.34;5031509;28;20570;-81
2021/08/27 03:40:51;;;;;;;4.63;2.20;;;12.10;99.90;;;10.62;100.00;100747.22;4989630;28;20413;-81
2021/08/27 03:43:19;;;;;;;7.13;2.30;;;12.10;99.90;;;10.60;100.00;100740.31;5032746;28;20497;-78
2021/08/27 03:46:34;;;;;;;3.67;2.50;;;12.00;99.90;;;10.51;100.00;100733.69;5061051;27;1448086;-80
2021/08/27 03:49:00;;;;;;;12.20;2.88;;;12.00;99.90;;;10.47;100.00;100729.50;5076135;27;20110;-81
2021/08/27 03:51:27;;;;;;;6.00;2.88;;;11.90;99.90;;;10.42;100.00;100719.19;5050338;27;20023;-80
2021/08/27 03:53:55;;;;;;;8.35;2.67;;;11.80;99.90;;;10.37;100.00;100715.06;5073502;27;20503;-80
2021/08/27 03:56:26;;;;;;;5.93;2.28;;;11.80;99.90;;;10.32;100.00;100709.97;5064176;28;20069;-80
2021/08/27 03:58:54;;;;;;;5.70;2.63;;;11.80;99.90;;;10.32;100.00;100730.19;5078861;28;20080;-80
2021/08/27 04:01:22;;;;;;;5.47;2.97;;;11.80;99.90;;;10.34;100.00;100717.81;5074644;28;20020;-81
2021/08/27 04:03:49;;;;;;;7.35;2.95;;;11.80;99.90;;;10.35;100.00;100730.91;5056958;28;20054;-80
2021/08/27 04:06:24;;;;;;;7.95;3.42;;;11.90;99.90;;;10.39;100.00;100724.59;5045542;27;20517;-81
2021/08/27 04:08:50;;;;;;;9.70;3.60;;;11.90;99.90;;;10.46;100.00;100748.84;5075190;27;20027;-80
2021/08/27 04:11:18;;;;;;;7.53;3.67;;;11.90;99.90;;;10.49;100.00;100750.50;5077706;28;20420;-80
2021/08/27 04:13:47;;;;;;;14.00;3.70;;;12.00;99.90;;;10.54;100.00;100756.38;5081077;28;20111;-81
2021/08/27 04:16:13;;;;;;;7.68;3.25;;;12.00;99.90;;;10.58;100.00;100757.97;5072224;28;20028;-81
2021/08/27 04:18:40;;;;;;;12.45;3.47;;;12.00;99.90;;;10.54;100.00;100751.13;5053669;28;20038;-81
2021/08/27 04:21:06;;;;;;;6.32;3.50;;;12.00;99.90;;;10.55;100.00;100752.84;5085091;28;20024;-81
2021/08/27 04:23:32;;;;;;;6.68;3.50;;;12.00;99.90;;;10.57;100.00;100756.25;5059542;28;20075;-80
2021/08/27 04:26:08;;;;;;;;;;;;;;;;;;;;;
2021/08/27 04:28:35;;;;;;;12.80;4.03;;;12.00;99.90;;;10.52;100.00;100750.34;5012073;27;21460;-80
2021/08/27 04:31:01;;;;;;;24.38;3.83;;;12.00;99.90;;;10.57;100.00;100762.38;5067456;28;20065;-80
2021/08/27 04:33:30;;;;;;;12.98;3.88;;;;;;;10.59;100.00;100763.16;5086654;28;20051;-80
2021/08/27 04:35:56;;;;;;;24.67;4.05;;;12.10;99.90;;;10.58;100.00;100761.47;5071637;28;20141;-80
2021/08/27 04:38:22;;;;;;;7.85;4.28;;;12.00;99.90;;;10.59;100.00;100780.75;5066550;28;20088;-81
2021/08/27 04:40:48;;;;;;;24.90;4.00;;;;;;;10.64;100.00;100776.13;5060351;28;20412;-80
2021/08/27 04:43:14;;;;;;;33.83;3.90;;;12.10;99.90;;;10.68;100.00;100775.91;5052489;28;20391;-81
2021/08/27 04:45:40;;;;;;;94.93;4.90;;;12.20;99.90;;;10.69;100.00;100779.41;5061518;28;20503;-80
2021/08/27 04:48:06;;;;;;;56.10;3.85;;;12.20;99.90;;;10.72;100.00;100783.66;5073894;28;20048;-80
2021/08/27 04:50:38;;;;;;;52.22;3.80;;;12.20;99.90;;;10.76;100.00;100794.00;5028391;27;20111;-80
2021/08/27 04:53:04;;;;;;;22.42;3.28;;;12.30;99.90;;;10.76;100.00;100799.25;5053358;27;20199;-80
2021/08/27 04:55:30;;;;;;;36.33;3.28;;;12.40;99.90;;;10.83;100.00;100799.81;5006040;28;20108;-80
2021/08/27 04:57:56;;;;;;;39.05;3.97;;;12.40;99.90;;;10.90;100.00;100803.88;5093364;28;20544;-80
2021/08/27 05:00:22;;;;;;;18.42;3.20;;;12.40;99.90;;;10.95;100.00;100809.81;5068581;28;20438;-80
2021/08/27 05:02:48;;;;;;;71.28;4.15;;;12.50;99.90;;;10.90;100.00;100797.75;5047933;28;20036;-80
2021/08/27 05:05:17;;;;;;;131.75;4.82;;;12.40;99.90;;;10.75;100.00;100789.63;5048163;28;20178;-80
2021/08/27 05:07:43;;;;;;;80.32;4.50;;;12.30;99.90;;;10.83;100.00;100819.13;5061292;28;20039;-80
2021/08/27 05:10:10;;;;;;;37.85;3.63;;;12.40;99.90;;;10.91;100.00;100817.88;5047510;28;20020;-80
2021/08/27 05:12:36;;;;;;;335.85;7.95;;;12.40;99.90;;;10.90;100.00;100821.47;5081574;28;20055;-80
2021/08/27 05:15:06;;;;;;;377.60;8.35;;;12.40;99.90;;;10.84;100.00;100814.69;5050645;28;20091;-80
2021/08/27 05:17:32;;;;;;;130.48;5.63;;;12.30;99.90;;;10.90;100.00;100832.00;5055562;28;20066;-80
2021/08/27 05:19:58;;;;;;;203.35;6.20;;;12.50;99.90;;;11.06;100.00;100833.84;5068643;28;20066;-80
2021/08/27 05:22:24;;;;;;;64.63;4.15;;;12.70;99.90;;;11.12;100.00;100840.59;5046763;28;20024;-80
2021/08/27 05:24:50;;;;;;;87.28;3.85;;;12.60;99.90;;;11.01;100.00;100827.94;5049463;28;20048;-80
2021/08/27 05:27:16;;;;;;;78.13;3.97;;;12.60;99.90;;;11.15;100.00;100839.63;5086854;28;20476;-80
2021/08/27 05:29:42;;;;;;;16.00;3.17;;;12.70;99.90;;;11.25;100.00;100849.66;5064654;28;21280;-80
2021/08/27 05:32:13;;;;;;;10.15;3.03;;;12.80;99.90;;;11.36;100.00;100858.81;5082992;28;20024;-80
2021/08/27 05:34:41;;;;;;;32.65;3.25;;;12.80;99.90;;;11.29;100.00;100845.97;5049291;28;20503;-80
2021/08/27 05:37:09;;;;;;;43.33;3.28;;;12.90;99.90;;;11.54;100.00;100868.50;5078197;28;20066;-80
2021/08/27 05:39:35;;;;;;;55.75;3.67;;;13.20;99.90;;;11.83;100.00;100904.00;5036898;27;20042;-80
2021/08/27 05:42:04;;;;;;;41.10;3.72;;;13.70;99.90;;;12.51;100.00;100956.09;5053500;28;20016;-80
2021/08/27 05:44:31;;;;;;;7.40;3.38;;;14.10;99.90;;;12.91;100.00;100976.06;5057265;27;20039;-80
2021/08/27 05:46:57;;;;;;;2.38;2.10;;;14.70;99.90;;;13.42;100.00;101006.91;5061469;28;20040;-80
2021/08/27 05:49:23;;;;;;;5.82;1.80;;;16.10;99.90;;;15.34;100.00;101117.84;5048784;28;20035;-80
2021/08/27 05:51:50;;;;;;;1.30;1.15;;;17.20;99.90;;;15.83;97.56;101133.44;5079865;28;20028;-80
2021/08/27 05:54:16;;;;;;;1.75;1.00;;;18.00;99.90;;;16.19;89.97;101114.31;5023823;28;20060;-81
2021/08/27 05:56:42;;;;;;;1.38;1.05;;;18.80;99.90;;;17.26;88.97;101177.41;5071821;28;20020;-82
2021/08/27 05:59:08;;;;;;;1.58;0.80;;;19.20;99.90;;;16.72;85.00;101114.44;5072164;28;20022;-81
2021/08/27 06:01:34;;;;;;;1.40;0.70;;;18.10;99.90;;;15.86;88.99;101225.34;5055185;28;20032;-81
2021/08/27 06:04:00;;;;;;;1.05;0.70;;;17.60;99.90;;;15.46;93.30;101117.06;5057638;28;20434;-81
2021/08/27 06:06:28;;;;;;;3.72;0.57;;;17.20;99.90;;;15.06;93.88;101092.97;5038107;28;20036;-80
2021/08/27 06:08:54;;;;;;;1.05;0.70;;;16.80;99.90;;;14.76;95.66;101053.22;5062146;28;20491;-80
2021/08/27 06:11:20;;;;;;;1.20;0.63;;;16.40;99.90;;;14.35;97.95;101032.59;5056978;28;20042;-80
2021/08/27 06:13:48;;;;;;;1.05;0.88;;;16.00;99.90;;;13.95;100.00;101005.72;5022048;28;20023;-80
2021/08/27 06:16:14;;;;;;;2.15;1.00;;;15.80;99.90;;;13.99;100.00;100998.47;5061516;28;20032;-80
2021/08/27 06:18:41;;;;;;;1.25;0.80;;;15.60;99.90;;;13.92;100.00;100998.81;5065497;28;20028;-80
2021/08/27 06:21:07;;;;;;;1.42;0.70;;;15.60;99.90;;;14.11;100.00;101014.50;5045893;28;20032;-80
2021/08/27 06:23:33;;;;;;;0.55;0.55;;;15.90;99.90;;;14.67;100.00;101093.50;5069438;28;20436;-80
2021/08/27 06:25:59;;;;;;;0.93;0.70;;;16.00;99.90;;;14.46;100.00;101059.31;5053639;28;20032;-80
2021/08/27 06:28:28;;;;;;;3.33;0.80;;;16.20;99.90;;;14.92;100.00;101066.41;5043009;28;20502;-80
2021/08/27 06:30:54;;;;;;;1.38;0.47;;;16.20;99.90;;;14.55;97.87;101026.16;5059265;28;20036;-80
2021/08/27 06:33:20;;;;;;;6.60;0.63;;;15.90;99.90;;;14.21;99.66;100998.09;5048960;28;20700;-80
2021/08/27 06:35:46;;;;;;;1.52;0.40;;;15.70;99.90;;;14.07;100.00;100997.09;5063903;28;20032;-80
2021/08/27 06:38:22;;;;;;;2.00;0.63;;;15.50;99.90;;;13.81;100.00;100977.38;5033697;28;20036;-79
2021/08/27 06:40:51;;;;;;;;;;;15.30;99.90;;;13.69;100.00;100980.72;5039715;28;20019;-81
2021/08/27 06:43:17;;;;;;;0.73;0.47;;;15.10;99.90;;;13.64;100.00;100991.53;5061745;28;19907;-81
2021/08/27 06:45:43;;;;;;;0.50;0.45;;;15.10;99.90;;;13.62;100.00;100982.00;5050966;28;20044;-80
2021/08/27 06:48:17;;;;;;;3.65;0.45;;;15.20;99.90;;;13.77;100.00;100993.53;5019042;27;20024;-81
2021/08/27 06:50:43;;;;;;;1.75;0.50;;;15.40;99.90;;;14.22;100.00;101032.44;5041043;27;20497;-80
2021/08/27 06:53:09;;;;;;;3.45;0.60;;;15.70;99.90;;;14.60;100.00;101068.28;5048388;27;20558;-80
2021/08/27 06:55:36;;;;;;;3.28;0.57;;;16.30;99.90;;;15.42;100.00;101130.63;5045653;28;20453;-80
2021/08/27 06:58:02;;;;;;;0.98;0.40;;;17.10;99.90;;;16.48;96.02;101207.28;5054977;28;20335;-80
2021/08/27 07:00:30;;;;;;;3.20;0.73;;;18.00;99.90;;;16.83;86.39;101176.75;5078850;28;20541;-81
2021/08/27 07:02:56;;;;;;;1.83;0.52;;;18.50;99.90;;;17.67;88.12;101245.59;5055190;28;20045;-80
2021/08/27 07:05:24;;;;;;;2.90;0.30;;;19.40;99.90;;;17.88;82.09;101234.44;5043795;28;20044;-81
2021/08/27 07:07:50;;;;;;;0.55;0.30;;;20.40;99.90;;;20.24;73.25;101380.06;5013757;28;20025;-80
2021/08/27 07:10:16;;;;;;;0.40;0.30;;;21.20;99.90;;;18.86;72.28;101200.81;5050421;28;20385;-80
2021/08/27 07:12:46;;;;;;;3.03;0.50;;;21.20;99.90;;;20.44;71.40;101308.94;5042735;28;20023;-82
2021/08/27 07:15:13;;;;;;;1.50;0.30;;;21.60;99.90;;;20.08;67.20;101261.88;5038699;28;20028;-81
2021/08/27 07:17:40;;;;;;;2.03;0.52;;;21.20;99.90;;;19.30;72.25;101247.34;5046899;28;20567;-80
2021/08/27 07:20:07;;;;;;;2.75;0.28;;;20.40;99.90;;;19.03;70.15;101300.97;5053787;28;20021;-80
2021/08/27 07:22:37;;;;;;;0.35;0.20;;;19.50;99.90;;;18.10;74.42;101295.09;5032296;28;20154;-81
2021/08/27 07:25:04;;;;;;;1.02;0.30;;;18.80;99.90;;;17.42;75.81;101262.38;5039432;28;20036;-80
2021/08/27 07:27:31;;;;;;;0.20;0.10;;;18.80;99.90;;;18.32;76.97;101220.69;5057887;28;20103;-80
2021/08/27 07:29:57;;;;;;;0.52;0.15;;;20.00;99.90;;;19.78;72.00;101279.31;5058167;28;20031;-80
2021/08/27 07:32:23;;;;;;;0.98;0.20;;;21.10;99.90;;;21.36;63.29;101335.50;5056085;28;20676;-80
2021/08/27 07:34:50;;;;;;;0.57;0.28;;;22.10;99.90;;;22.02;64.84;101319.25;5061890;28;20043;-80
2021/08/27 07:37:18;;;;;;;0.10;0.10;;;22.70;99.90;;;21.55;63.49;101249.09;5078749;28;20074;-81
2021/08/27 07:39:44;;;;;;;0.45;0.10;;;23.10;99.90;;;22.24;60.99;101264.63;5043562;28;20530;-80
2021/08/27 07:42:10;;;;;;;7.53;0.30;;;23.00;99.90;;;21.29;61.20;101353.03;5057131;28;20031;-80
2021/08/27 07:44:37;;;;;;;0.30;0.13;;;21.30;99.90;;;17.95;68.74;101131.84;5065491;28;20040;-80
2021/08/27 07:47:04;;;;;;;0.10;0.10;;;19.50;99.90;;;17.43;72.89;101131.84;5058033;28;20114;-80
2021/08/27 07:49:30;;;;;;;0.63;0.20;;;19.60;99.90;;;18.29;71.57;101145.41;5043956;28;20486;-80
2021/08/27 07:51:57;;;;;;;0.45;0.20;;;19.70;99.90;;;17.99;69.91;101136.84;5052059;28;20027;-80
2021/08/27 07:54:25;;;;;;;0.28;0.10;;;18.80;99.90;;;16.65;73.64;101049.34;5059731;28;20533;-79
2021/08/27 07:56:51;;;;;;;0.90;0.30;;;20.30;99.90;;;17.50;71.14;101126.09;5069814;28;20027;-79
2021/08/27 07:59:18;;;;;;;0.60;0.10;;;18.40;99.90;;;16.58;75.56;101043.56;5036664;28;20020;-79
2021/08/27 08:01:43;;;;;;;0.95;0.15;;;17.90;99.90;;;16.35;76.76;101036.28;5069625;28;20430;-79
2021/08/27 08:04:10;;;;;;;1.30;0.10;;;17.80;99.90;;;16.85;75.77;101087.06;5023241;28;20020;-79
2021/08/27 08:06:36;;;;;;;0.40;0.10;;;18.00;99.90;;;17.48;73.97;101139.50;5071299;28;20040;-80
2021/08/27 08:09:06;;;;;;;2.13;0.13;;;19.10;99.90;;;18.52;69.76;101173.91;5068318;28;20107;-79
2021/08/27 08:11:33;;;;;;;2.50;0.30;;;19.60;99.90;;;18.25;68.66;101717.91;5063909;28;20101;-79
2021/08/27 08:14:00;;;;;;;1.15;0.30;;;19.30;99.90;;;17.65;71.04;101583.06;5060484;28;20039;-79
2021/08/27 08:16:27;;;;;;;0.30;0.10;;;18.90;99.90;;;18.02;71.60;101602.06;5083241;28;20551;-79
2021/08/27 08:18:53;;;;;;;0.43;0.10;;;19.50;99.90;;;18.99;66.61;101631.25;5053772;28;20032;-79
2021/08/27 08:21:23;;;;;;;0.85;0.13;;;20.30;99.90;;;20.03;66.29;101643.66;5069243;28;20031;-79
2021/08/27 08:23:54;;;;;;;0.45;0.10;;;21.20;99.90;;;21.78;58.70;101775.19;5060300;28;20055;-79
2021/08/27 08:26:21;;;;;;;1.27;0.20;;;21.80;99.90;;;21.76;57.78;101627.03;5073427;28;20460;-79
2021/08/27 08:28:50;;;;;;;0.10;0.10;;;21.70;99.90;;;20.70;63.42;101530.84;5067671;28;20044;-79
2021/08/27 08:31:18;;;;;;;1.17;0.20;;;21.80;99.90;;;21.60;57.33;101564.94;5051386;28;20047;-78
2021/08/27 08:33:45;;;;;;;0.47;0.10;;;22.50;99.90;;;21.90;57.42;101516.03;5075099;28;20024;-79
2021/08/27 08:36:11;;;;;;;0.73;0.20;;;22.50;99.90;;;20.23;62.37;101383.69;5054529;28;20434;-78
2021/08/27 08:38:38;;;;;;;0.95;0.28;;;21.30;99.90;;;19.68;64.54;101396.72;5069433;28;20517;-79
2021/08/27 08:41:04;;;;;;;0.35;0.20;;;20.50;99.90;;;19.36;68.12;101398.25;5031254;28;20039;-78
2021/08/27 08:43:31;;;;;;;0.10;0.10;;;21.10;99.90;;;20.29;65.31;101454.56;5073638;28;20035;-78
2021/08/27 08:45:58;;;;;;;0.57;0.20;;;21.40;99.90;;;20.01;65.64;101400.50;5084032;28;20047;-78
2021/08/27 08:48:26;;;;;;;0.20;0.20;;;21.10;99.90;;;19.73;61.52;101374.19;5069651;28;20493;-79
2021/08/27 08:50:54;;;;;;;0.50;0.20;;;20.70;99.90;;;19.00;65.02;101331.38;5060516;28;20016;-79
2021/08/27 08:53:22;;;;;;;0.30;0.15;;;20.20;99.90;;;18.79;68.31;101308.91;5064243;28;20484;-78
2021/08/27 08:55:50;;;;;;;0.00;0.00;;;20.10;99.90;;;18.31;67.54;101279.41;5049565;28;20047;-79
2021/08/27 08:58:18;;;;;;;1.65;0.30;;;20.00;99.90;;;18.73;71.28;101336.03;5048354;28;20052;-78
2021/08/27 09:00:59;;;;;;;0.65;0.20;;;20.30;99.90;;;18.88;68.24;101344.75;5061586;27;20036;-78
2021/08/27 09:03:37;;;;;;;1.02;0.20;;;20.30;99.90;;;18.41;65.16;101304.47;5012623;28;20174;-78
2021/08/27 09:06:06;;;;;;;2.65;0.20;;;20.10;99.90;;;18.54;66.15;101307.13;5026678;28;20048;-77
2021/08/27 09:09:01;;;;;;;0.13;0.10;;;20.30;99.90;;;18.47;64.48;101314.72;5042741;28;20039;-77
2021/08/27 09:11:45;;;;;;;0.15;0.10;;;20.10;99.90;;;17.92;61.96;101260.78;5031629;28;20043;-78
2021/08/27 09:14:28;;;;;;;0.30;0.10;;;19.70;99.90;;;17.84;62.46;101263.13;5025724;28;20036;-78
2021/08/27 09:18:02;;;;;;;0.30;0.10;;;19.20;99.90;;;17.30;65.90;101244.56;5010934;28;20101;-77
2021/08/27 09:21:06;;;;;;;0.20;0.10;;;18.40;99.90;;;16.65;70.60;101229.25;5042664;28;20059;-77
2021/08/27 09:24:25;;;;;;;0.35;0.17;;;18.00;99.90;;;16.28;70.80;101200.56;5038626;28;20040;-78
2021/08/27 09:27:35;;;;;;;0.10;0.10;;;17.80;99.90;;;16.20;72.20;101195.75;5022871;28;20063;-77
2021/08/27 09:31:15;;;;;;;1.40;0.10;;;17.50;99.90;;;16.09;73.16;101320.41;5037605;28;20517;-77
2021/08/27 09:34:35;;;;;;;0.38;0.10;;;17.30;99.90;;;16.23;70.64;101339.97;5018447;28;20036;-77
2021/08/27 09:38:11;;;;;;;0.13;0.05;;;17.30;99.90;;;16.07;73.01;101284.25;5039124;28;20043;-77
2021/08/27 09:41:36;;;;;;;3.40;1.27;;;17.50;99.90;;;15.91;73.30;101252.47;5020991;28;20448;-77
2021/08/27 09:45:28;;;;;;;1.85;0.10;;;17.50;99.90;;;16.47;73.56;101313.69;5037649;28;20910;-77
2021/08/27 09:48:33;;;;;;;0.63;0.10;;;17.70;99.90;;;17.11;71.29;101367.34;5043199;28;20051;-77
2021/08/27 09:51:43;;;;;;;1.13;0.17;;;18.10;99.90;;;16.43;70.53;101277.63;5036496;28;20512;-77
2021/08/27 09:55:18;;;;;;;0.80;0.20;;;17.90;99.90;;;16.31;72.33;101273.94;5013765;28;20103;-77
2021/08/27 09:58:59;;;;;;;0.68;0.10;;;17.70;99.90;;;16.63;73.31;101306.47;5038178;27;20036;-77
2021/08/27 10:02:49;;;;;;;0.75;0.20;;;17.70;99.90;;;16.52;74.97;101288.56;5038474;28;20038;-77
2021/08/27 10:06:42;;;;;;;0.90;0.30;;;17.80;99.90;;;16.47;74.31;101295.94;5043307;28;21708;-78
2021/08/27 10:10:45;;;;;;;0.90;0.30;;;17.60;99.90;;;16.18;75.09;101261.41;5013770;28;20397;-77
2021/08/27 10:14:01;;;;;;;1.35;0.22;;;17.70;99.90;;;16.10;72.88;101266.31;5029252;28;20032;-77
2021/08/27 10:17:03;;;;;;;0.13;0.03;;;17.80;99.90;;;16.73;72.50;101312.06;5018419;28;20122;-77
2021/08/27 10:20:00;;;;;;;0.10;0.10;;;17.60;99.90;;;16.01;73.11;101253.63;5017503;28;20039;-77
2021/08/27 10:23:03;;;;;;;0.85;0.20;;;17.50;99.90;;;16.33;71.52;101283.53;5036234;28;20388;-79
2021/08/27 10:26:03;;;;;;;0.60;0.20;;;17.80;99.90;;;17.08;72.42;101336.44;5037003;28;20036;-77
2021/08/27 10:29:01;;;;;;;0.50;0.20;;;18.40;99.90;;;17.73;71.92;101374.81;5018265;28;20428;-77
2021/08/27 10:32:07;;;;;;;0.15;0.15;;;18.50;99.90;;;17.55;67.40;101353.78;5038051;28;20032;-77
2021/08/27 10:34:44;;;;;;;1.33;0.40;;;18.10;99.90;;;16.73;68.93;101277.50;5032242;28;20474;-77
2021/08/27 10:37:49;;;;;;;1.45;0.20;;;18.10;99.90;;;17.40;71.26;101347.66;5049168;28;20027;-77
2021/08/27 10:40:22;;;;;;;0.20;0.20;;;18.40;99.90;;;17.36;68.28;101322.19;5062922;28;20032;-77
2021/08/27 10:42:56;;;;;;;0.80;0.10;;;18.30;99.90;;;16.76;69.37;101267.53;5084993;27;20062;-77